sensor_id;sensor_type;location;lat;lon;timestamp;P1;durP1;ratioP1;P2;durP2;ratioP2
31760;SDS011;18335;51.486;7.562;2023-03-23T00:02:15;8.18;;;2.60;;
31760;SDS011;18335;51.486;7.562;2023-03-23T00:04:42;10.48;;;2.60;;
31760;SDS011;18335;51.486;7.562;2023-03-23T00:07:09;8.82;;;2.95;;
31760;SDS011;18335;51.486;7.562;2023-03-23T00:09:37;7.03;;;2.88;;
31760;SDS011;18335;51.486;7.562;2023-03-23T00:12:06;8.02;;;2.70;;
31760;SDS011;18335;51.486;7.562;2023-03-23T00:14:34;9.95;;;3.00;;
31760;SDS011;18335;51.486;7.562;2023-03-23T00:17:08;6.65;;;2.75;;
31760;SDS011;18335;51.486;7.562;2023-03-23T00:19:36;7.22;;;2.53;;
31760;SDS011;18335;51.486;7.562;2023-03-23T00:22:11;7.40;;;2.60;;
31760;SDS011;18335;51.486;7.562;2023-03-23T00:24:39;6.75;;;2.47;;
31760;SDS011;18335;51.486;7.562;2023-03-23T00:27:06;8.88;;;2.83;;
31760;SDS011;18335;51.486;7.562;2023-03-23T00:29:35;8.40;;;2.80;;
31760;SDS011;18335;51.486;7.562;2023-03-23T00:32:02;6.40;;;2.25;;
31760;SDS011;18335;51.486;7.562;2023-03-23T00:34:31;7.15;;;2.15;;
31760;SDS011;18335;51.486;7.562;2023-03-23T00:36:59;9.43;;;2.40;;
31760;SDS011;18335;51.486;7.562;2023-03-23T00:39:27;8.38;;;2.80;;
31760;SDS011;18335;51.486;7.562;2023-03-23T00:41:55;6.03;;;2.30;;
31760;SDS011;18335;51.486;7.562;2023-03-23T00:44:26;6.35;;;2.40;;
31760;SDS011;18335;51.486;7.562;2023-03-23T00:46:54;5.30;;;2.28;;
31760;SDS011;18335;51.486;7.562;2023-03-23T00:49:22;8.32;;;2.25;;
31760;SDS011;18335;51.486;7.562;2023-03-23T00:51:51;5.70;;;2.55;;
31760;SDS011;18335;51.486;7.562;2023-03-23T00:54:19;6.35;;;2.20;;
31760;SDS011;18335;51.486;7.562;2023-03-23T00:56:48;5.93;;;2.00;;
31760;SDS011;18335;51.486;7.562;2023-03-23T00:59:17;9.15;;;2.25;;
31760;SDS011;18335;51.486;7.562;2023-03-23T01:01:44;4.28;;;2.35;;
31760;SDS011;18335;51.486;7.562;2023-03-23T01:04:14;7.40;;;2.45;;
31760;SDS011;18335;51.486;7.562;2023-03-23T01:06:42;7.47;;;2.38;;
31760;SDS011;18335;51.486;7.562;2023-03-23T01:09:10;7.80;;;2.13;;
31760;SDS011;18335;51.486;7.562;2023-03-23T01:11:39;6.80;;;2.10;;
31760;SDS011;18335;51.486;7.562;2023-03-23T01:14:06;5.03;;;2.22;;
31760;SDS011;18335;51.486;7.562;2023-03-23T01:16:33;8.75;;;2.33;;
31760;SDS011;18335;51.486;7.562;2023-03-23T01:19:00;8.32;;;2.42;;
31760;SDS011;18335;51.486;7.562;2023-03-23T01:21:28;5.50;;;2.13;;
31760;SDS011;18335;51.486;7.562;2023-03-23T01:23:55;6.22;;;2.42;;
31760;SDS011;18335;51.486;7.562;2023-03-23T01:26:23;6.13;;;2.30;;
31760;SDS011;18335;51.486;7.562;2023-03-23T01:28:52;6.68;;;2.40;;
31760;SDS011;18335;51.486;7.562;2023-03-23T01:31:19;5.93;;;2.10;;
31760;SDS011;18335;51.486;7.562;2023-03-23T01:33:47;7.32;;;1.80;;
31760;SDS011;18335;51.486;7.562;2023-03-23T01:36:16;6.72;;;2.38;;
31760;SDS011;18335;51.486;7.562;2023-03-23T01:38:47;4.65;;;2.05;;
31760;SDS011;18335;51.486;7.562;2023-03-23T01:41:15;5.85;;;2.10;;
31760;SDS011;18335;51.486;7.562;2023-03-23T01:43:57;8.05;;;1.92;;
31760;SDS011;18335;51.486;7.562;2023-03-23T01:46:27;8.32;;;2.28;;
31760;SDS011;18335;51.486;7.562;2023-03-23T01:48:56;5.43;;;1.92;;
31760;SDS011;18335;51.486;7.562;2023-03-23T01:51:26;6.72;;;2.25;;
31760;SDS011;18335;51.486;7.562;2023-03-23T01:53:55;6.47;;;1.80;;
31760;SDS011;18335;51.486;7.562;2023-03-23T01:56:24;9.05;;;2.25;;
31760;SDS011;18335;51.486;7.562;2023-03-23T01:58:55;5.70;;;1.80;;
31760;SDS011;18335;51.486;7.562;2023-03-23T02:01:24;7.03;;;2.28;;
31760;SDS011;18335;51.486;7.562;2023-03-23T02:03:53;4.22;;;1.85;;
31760;SDS011;18335;51.486;7.562;2023-03-23T02:06:23;7.18;;;2.00;;
31760;SDS011;18335;51.486;7.562;2023-03-23T02:09:18;7.43;;;2.53;;
31760;SDS011;18335;51.486;7.562;2023-03-23T02:11:47;11.73;;;2.30;;
31760;SDS011;18335;51.486;7.562;2023-03-23T02:14:16;6.55;;;2.70;;
31760;SDS011;18335;51.486;7.562;2023-03-23T02:16:44;6.75;;;1.98;;
31760;SDS011;18335;51.486;7.562;2023-03-23T02:19:21;5.07;;;1.95;;
31760;SDS011;18335;51.486;7.562;2023-03-23T02:22:10;6.90;;;2.17;;
31760;SDS011;18335;51.486;7.562;2023-03-23T02:25:20;5.25;;;2.15;;
31760;SDS011;18335;51.486;7.562;2023-03-23T02:28:10;5.43;;;2.03;;
31760;SDS011;18335;51.486;7.562;2023-03-23T02:30:52;7.90;;;2.20;;
31760;SDS011;18335;51.486;7.562;2023-03-23T02:33:40;5.30;;;2.10;;
31760;SDS011;18335;51.486;7.562;2023-03-23T02:36:14;5.65;;;2.20;;
31760;SDS011;18335;51.486;7.562;2023-03-23T02:38:53;5.88;;;3.03;;
31760;SDS011;18335;51.486;7.562;2023-03-23T02:41:25;6.80;;;2.42;;
31760;SDS011;18335;51.486;7.562;2023-03-23T02:43:57;6.72;;;2.13;;
31760;SDS011;18335;51.486;7.562;2023-03-23T02:46:25;8.55;;;2.17;;
31760;SDS011;18335;51.486;7.562;2023-03-23T02:48:54;6.45;;;1.70;;
31760;SDS011;18335;51.486;7.562;2023-03-23T02:51:23;6.32;;;2.13;;
31760;SDS011;18335;51.486;7.562;2023-03-23T02:53:51;7.00;;;2.20;;
31760;SDS011;18335;51.486;7.562;2023-03-23T02:56:21;3.35;;;1.60;;
31760;SDS011;18335;51.486;7.562;2023-03-23T02:58:51;6.32;;;1.92;;
31760;SDS011;18335;51.486;7.562;2023-03-23T03:06:58;4.10;;;1.98;;
31760;SDS011;18335;51.486;7.562;2023-03-23T03:09:45;4.13;;;1.83;;
31760;SDS011;18335;51.486;7.562;2023-03-23T03:12:18;6.20;;;2.10;;
31760;SDS011;18335;51.486;7.562;2023-03-23T03:14:51;6.95;;;2.03;;
31760;SDS011;18335;51.486;7.562;2023-03-23T03:17:26;5.32;;;1.60;;
31760;SDS011;18335;51.486;7.562;2023-03-23T03:19:56;6.88;;;2.28;;
31760;SDS011;18335;51.486;7.562;2023-03-23T03:22:34;6.43;;;1.90;;
31760;SDS011;18335;51.486;7.562;2023-03-23T03:25:04;4.93;;;2.10;;
31760;SDS011;18335;51.486;7.562;2023-03-23T03:27:33;6.18;;;1.92;;
31760;SDS011;18335;51.486;7.562;2023-03-23T03:30:11;5.18;;;2.13;;
31760;SDS011;18335;51.486;7.562;2023-03-23T03:32:43;5.50;;;2.42;;
31760;SDS011;18335;51.486;7.562;2023-03-23T03:35:15;5.97;;;2.30;;
31760;SDS011;18335;51.486;7.562;2023-03-23T03:37:43;7.50;;;2.15;;
31760;SDS011;18335;51.486;7.562;2023-03-23T03:40:12;6.75;;;1.98;;
31760;SDS011;18335;51.486;7.562;2023-03-23T03:42:42;4.05;;;1.55;;
31760;SDS011;18335;51.486;7.562;2023-03-23T03:45:11;5.68;;;2.00;;
31760;SDS011;18335;51.486;7.562;2023-03-23T03:47:39;5.90;;;2.40;;
31760;SDS011;18335;51.486;7.562;2023-03-23T03:50:06;6.63;;;2.53;;
31760;SDS011;18335;51.486;7.562;2023-03-23T03:52:35;5.13;;;2.40;;
31760;SDS011;18335;51.486;7.562;2023-03-23T03:55:04;4.10;;;1.60;;
31760;SDS011;18335;51.486;7.562;2023-03-23T03:57:32;6.38;;;1.95;;
31760;SDS011;18335;51.486;7.562;2023-03-23T04:00:05;5.03;;;2.10;;
31760;SDS011;18335;51.486;7.562;2023-03-23T04:02:40;7.05;;;2.10;;
31760;SDS011;18335;51.486;7.562;2023-03-23T04:05:13;5.35;;;1.75;;
31760;SDS011;18335;51.486;7.562;2023-03-23T04:07:43;5.10;;;2.08;;
31760;SDS011;18335;51.486;7.562;2023-03-23T04:10:11;6.80;;;1.60;;
31760;SDS011;18335;51.486;7.562;2023-03-23T04:12:40;5.40;;;2.13;;
31760;SDS011;18335;51.486;7.562;2023-03-23T04:15:43;3.38;;;1.85;;
31760;SDS011;18335;51.486;7.562;2023-03-23T04:18:10;5.88;;;1.90;;
31760;SDS011;18335;51.486;7.562;2023-03-23T04:20:37;6.03;;;1.98;;
31760;SDS011;18335;51.486;7.562;2023-03-23T04:23:06;5.60;;;1.85;;
31760;SDS011;18335;51.486;7.562;2023-03-23T04:25:34;5.18;;;1.90;;
31760;SDS011;18335;51.486;7.562;2023-03-23T04:28:01;4.07;;;2.00;;
31760;SDS011;18335;51.486;7.562;2023-03-23T04:30:34;5.13;;;1.60;;
31760;SDS011;18335;51.486;7.562;2023-03-23T04:33:05;3.22;;;1.15;;
31760;SDS011;18335;51.486;7.562;2023-03-23T04:35:32;3.80;;;1.60;;
31760;SDS011;18335;51.486;7.562;2023-03-23T04:38:21;2.85;;;1.40;;
31760;SDS011;18335;51.486;7.562;2023-03-23T04:40:54;4.93;;;2.30;;
31760;SDS011;18335;51.486;7.562;2023-03-23T04:43:35;4.38;;;1.50;;
31760;SDS011;18335;51.486;7.562;2023-03-23T04:46:36;3.70;;;1.40;;
31760;SDS011;18335;51.486;7.562;2023-03-23T04:49:07;4.47;;;1.42;;
31760;SDS011;18335;51.486;7.562;2023-03-23T04:51:37;3.90;;;1.50;;
31760;SDS011;18335;51.486;7.562;2023-03-23T04:54:27;3.05;;;1.92;;
31760;SDS011;18335;51.486;7.562;2023-03-23T04:56:55;5.00;;;1.40;;
31760;SDS011;18335;51.486;7.562;2023-03-23T04:59:24;4.82;;;1.85;;
31760;SDS011;18335;51.486;7.562;2023-03-23T05:02:13;3.65;;;1.50;;
31760;SDS011;18335;51.486;7.562;2023-03-23T05:04:43;5.55;;;1.40;;
31760;SDS011;18335;51.486;7.562;2023-03-23T05:07:14;4.28;;;1.48;;
31760;SDS011;18335;51.486;7.562;2023-03-23T05:09:47;2.55;;;1.40;;
31760;SDS011;18335;51.486;7.562;2023-03-23T05:12:18;5.25;;;2.13;;
31760;SDS011;18335;51.486;7.562;2023-03-23T05:14:58;4.25;;;1.33;;
31760;SDS011;18335;51.486;7.562;2023-03-23T05:17:27;4.03;;;1.50;;
31760;SDS011;18335;51.486;7.562;2023-03-23T05:19:56;3.83;;;1.50;;
31760;SDS011;18335;51.486;7.562;2023-03-23T05:22:33;5.75;;;1.45;;
31760;SDS011;18335;51.486;7.562;2023-03-23T05:25:04;4.90;;;1.55;;
31760;SDS011;18335;51.486;7.562;2023-03-23T05:27:35;3.45;;;1.30;;
31760;SDS011;18335;51.486;7.562;2023-03-23T05:30:11;5.63;;;1.75;;
31760;SDS011;18335;51.486;7.562;2023-03-23T05:32:41;3.92;;;1.40;;
31760;SDS011;18335;51.486;7.562;2023-03-23T05:35:22;3.53;;;1.58;;
31760;SDS011;18335;51.486;7.562;2023-03-23T05:37:51;3.63;;;1.50;;
31760;SDS011;18335;51.486;7.562;2023-03-23T05:40:20;4.00;;;1.48;;
31760;SDS011;18335;51.486;7.562;2023-03-23T05:42:53;4.22;;;1.63;;
31760;SDS011;18335;51.486;7.562;2023-03-23T05:47:56;4.53;;;1.60;;
31760;SDS011;18335;51.486;7.562;2023-03-23T05:50:26;4.75;;;1.70;;
31760;SDS011;18335;51.486;7.562;2023-03-23T05:52:53;5.75;;;1.70;;
31760;SDS011;18335;51.486;7.562;2023-03-23T05:55:23;3.83;;;1.95;;
31760;SDS011;18335;51.486;7.562;2023-03-23T05:57:59;5.10;;;1.42;;
31760;SDS011;18335;51.486;7.562;2023-03-23T06:00:32;5.88;;;1.75;;
31760;SDS011;18335;51.486;7.562;2023-03-23T06:03:10;4.72;;;1.98;;
31760;SDS011;18335;51.486;7.562;2023-03-23T06:05:47;4.18;;;1.60;;
31760;SDS011;18335;51.486;7.562;2023-03-23T06:08:17;5.05;;;1.80;;
31760;SDS011;18335;51.486;7.562;2023-03-23T06:10:46;4.65;;;1.60;;
31760;SDS011;18335;51.486;7.562;2023-03-23T06:13:13;6.30;;;1.60;;
31760;SDS011;18335;51.486;7.562;2023-03-23T06:15:46;5.00;;;2.08;;
31760;SDS011;18335;51.486;7.562;2023-03-23T06:18:43;4.68;;;1.63;;
31760;SDS011;18335;51.486;7.562;2023-03-23T06:21:16;5.88;;;2.15;;
31760;SDS011;18335;51.486;7.562;2023-03-23T06:23:57;5.85;;;1.98;;
31760;SDS011;18335;51.486;7.562;2023-03-23T06:26:30;6.55;;;1.65;;
31760;SDS011;18335;51.486;7.562;2023-03-23T06:29:00;4.00;;;1.50;;
31760;SDS011;18335;51.486;7.562;2023-03-23T06:31:30;3.10;;;1.58;;
31760;SDS011;18335;51.486;7.562;2023-03-23T06:34:01;5.55;;;1.80;;
31760;SDS011;18335;51.486;7.562;2023-03-23T06:37:00;5.78;;;2.17;;
31760;SDS011;18335;51.486;7.562;2023-03-23T06:39:35;4.90;;;2.05;;
31760;SDS011;18335;51.486;7.562;2023-03-23T06:42:24;4.85;;;1.65;;
31760;SDS011;18335;51.486;7.562;2023-03-23T06:45:10;4.32;;;1.38;;
31760;SDS011;18335;51.486;7.562;2023-03-23T06:47:38;4.57;;;1.80;;
31760;SDS011;18335;51.486;7.562;2023-03-23T06:50:05;4.45;;;1.95;;
31760;SDS011;18335;51.486;7.562;2023-03-23T06:52:34;5.30;;;2.40;;
31760;SDS011;18335;51.486;7.562;2023-03-23T06:55:01;6.82;;;1.80;;
31760;SDS011;18335;51.486;7.562;2023-03-23T06:57:30;5.38;;;2.10;;
31760;SDS011;18335;51.486;7.562;2023-03-23T06:59:56;6.03;;;2.33;;
31760;SDS011;18335;51.486;7.562;2023-03-23T07:02:24;5.18;;;1.65;;
31760;SDS011;18335;51.486;7.562;2023-03-23T07:04:52;5.78;;;2.53;;
31760;SDS011;18335;51.486;7.562;2023-03-23T07:07:21;7.32;;;2.15;;
31760;SDS011;18335;51.486;7.562;2023-03-23T07:10:04;4.78;;;1.65;;
31760;SDS011;18335;51.486;7.562;2023-03-23T07:12:35;5.65;;;1.77;;
31760;SDS011;18335;51.486;7.562;2023-03-23T07:15:04;6.00;;;2.33;;
31760;SDS011;18335;51.486;7.562;2023-03-23T07:17:33;6.97;;;2.03;;
31760;SDS011;18335;51.486;7.562;2023-03-23T07:20:25;4.22;;;1.73;;
31760;SDS011;18335;51.486;7.562;2023-03-23T07:22:53;7.85;;;2.35;;
31760;SDS011;18335;51.486;7.562;2023-03-23T07:25:34;5.65;;;1.70;;
31760;SDS011;18335;51.486;7.562;2023-03-23T07:28:03;6.63;;;1.88;;
31760;SDS011;18335;51.486;7.562;2023-03-23T07:30:30;5.53;;;2.00;;
31760;SDS011;18335;51.486;7.562;2023-03-23T07:32:56;6.80;;;1.70;;
31760;SDS011;18335;51.486;7.562;2023-03-23T07:35:24;9.05;;;2.15;;
31760;SDS011;18335;51.486;7.562;2023-03-23T07:37:58;8.23;;;2.22;;
31760;SDS011;18335;51.486;7.562;2023-03-23T07:40:25;7.00;;;1.70;;
31760;SDS011;18335;51.486;7.562;2023-03-23T07:42:58;4.78;;;1.95;;
31760;SDS011;18335;51.486;7.562;2023-03-23T07:45:56;9.20;;;3.25;;
31760;SDS011;18335;51.486;7.562;2023-03-23T07:48:27;6.82;;;1.77;;
31760;SDS011;18335;51.486;7.562;2023-03-23T07:50:54;7.25;;;1.58;;
31760;SDS011;18335;51.486;7.562;2023-03-23T07:53:21;7.60;;;1.77;;
31760;SDS011;18335;51.486;7.562;2023-03-23T07:55:57;9.02;;;1.80;;
31760;SDS011;18335;51.486;7.562;2023-03-23T07:58:44;6.32;;;1.88;;
31760;SDS011;18335;51.486;7.562;2023-03-23T08:01:12;7.55;;;1.98;;
31760;SDS011;18335;51.486;7.562;2023-03-23T08:03:43;8.02;;;1.65;;
31760;SDS011;18335;51.486;7.562;2023-03-23T08:06:34;5.43;;;1.50;;
31760;SDS011;18335;51.486;7.562;2023-03-23T08:09:20;4.38;;;1.40;;
31760;SDS011;18335;51.486;7.562;2023-03-23T08:12:05;7.85;;;1.80;;
31760;SDS011;18335;51.486;7.562;2023-03-23T08:14:54;8.32;;;1.48;;
31760;SDS011;18335;51.486;7.562;2023-03-23T08:17:38;3.83;;;1.23;;
31760;SDS011;18335;51.486;7.562;2023-03-23T08:20:41;6.15;;;1.63;;
31760;SDS011;18335;51.486;7.562;2023-03-23T08:23:32;7.55;;;2.05;;
31760;SDS011;18335;51.486;7.562;2023-03-23T08:26:08;4.97;;;1.55;;
31760;SDS011;18335;51.486;7.562;2023-03-23T08:28:52;2.80;;;1.23;;
31760;SDS011;18335;51.486;7.562;2023-03-23T08:31:38;6.13;;;1.63;;
31760;SDS011;18335;51.486;7.562;2023-03-23T08:34:26;6.80;;;1.75;;
31760;SDS011;18335;51.486;7.562;2023-03-23T08:37:05;5.20;;;1.38;;
31760;SDS011;18335;51.486;7.562;2023-03-23T08:40:04;5.28;;;1.80;;
31760;SDS011;18335;51.486;7.562;2023-03-23T08:42:58;6.10;;;1.67;;
31760;SDS011;18335;51.486;7.562;2023-03-23T08:45:43;7.03;;;1.65;;
31760;SDS011;18335;51.486;7.562;2023-03-23T08:48:29;7.63;;;2.03;;
31760;SDS011;18335;51.486;7.562;2023-03-23T08:51:16;5.07;;;1.63;;
31760;SDS011;18335;51.486;7.562;2023-03-23T08:54:02;4.22;;;1.77;;
31760;SDS011;18335;51.486;7.562;2023-03-23T08:56:48;8.88;;;1.60;;
31760;SDS011;18335;51.486;7.562;2023-03-23T08:59:28;9.73;;;1.80;;
31760;SDS011;18335;51.486;7.562;2023-03-23T09:02:13;5.75;;;1.50;;
31760;SDS011;18335;51.486;7.562;2023-03-23T09:04:48;6.00;;;1.55;;
31760;SDS011;18335;51.486;7.562;2023-03-23T09:07:44;6.10;;;1.60;;
31760;SDS011;18335;51.486;7.562;2023-03-23T09:10:13;5.63;;;1.60;;
31760;SDS011;18335;51.486;7.562;2023-03-23T09:12:40;5.53;;;1.67;;
31760;SDS011;18335;51.486;7.562;2023-03-23T09:15:09;7.85;;;1.85;;
31760;SDS011;18335;51.486;7.562;2023-03-23T09:17:40;3.65;;;1.38;;
31760;SDS011;18335;51.486;7.562;2023-03-23T09:20:09;6.05;;;2.05;;
31760;SDS011;18335;51.486;7.562;2023-03-23T09:22:37;6.25;;;1.60;;
31760;SDS011;18335;51.486;7.562;2023-03-23T09:25:06;5.95;;;1.70;;
31760;SDS011;18335;51.486;7.562;2023-03-23T09:27:35;5.05;;;1.40;;
31760;SDS011;18335;51.486;7.562;2023-03-23T09:30:04;6.22;;;1.80;;
31760;SDS011;18335;51.486;7.562;2023-03-23T09:32:32;10.13;;;2.00;;
31760;SDS011;18335;51.486;7.562;2023-03-23T09:35:00;7.68;;;2.13;;
31760;SDS011;18335;51.486;7.562;2023-03-23T09:37:28;7.28;;;2.17;;
31760;SDS011;18335;51.486;7.562;2023-03-23T09:39:55;10.27;;;2.40;;
31760;SDS011;18335;51.486;7.562;2023-03-23T09:42:28;6.28;;;1.63;;
31760;SDS011;18335;51.486;7.562;2023-03-23T09:45:09;7.68;;;2.08;;
31760;SDS011;18335;51.486;7.562;2023-03-23T09:47:44;6.72;;;1.60;;
31760;SDS011;18335;51.486;7.562;2023-03-23T09:50:20;7.55;;;1.58;;
31760;SDS011;18335;51.486;7.562;2023-03-23T09:52:52;11.88;;;2.58;;
31760;SDS011;18335;51.486;7.562;2023-03-23T09:55:23;7.20;;;1.88;;
31760;SDS011;18335;51.486;7.562;2023-03-23T09:57:56;4.97;;;2.22;;
31760;SDS011;18335;51.486;7.562;2023-03-23T10:00:26;6.03;;;1.50;;
31760;SDS011;18335;51.486;7.562;2023-03-23T10:02:59;7.85;;;1.98;;
31760;SDS011;18335;51.486;7.562;2023-03-23T10:05:32;7.50;;;2.58;;
31760;SDS011;18335;51.486;7.562;2023-03-23T10:08:00;6.88;;;1.73;;
31760;SDS011;18335;51.486;7.562;2023-03-23T10:10:31;8.75;;;1.83;;
31760;SDS011;18335;51.486;7.562;2023-03-23T10:13:08;8.15;;;1.85;;
31760;SDS011;18335;51.486;7.562;2023-03-23T10:15:42;8.68;;;1.98;;
31760;SDS011;18335;51.486;7.562;2023-03-23T10:18:12;5.75;;;1.45;;
31760;SDS011;18335;51.486;7.562;2023-03-23T10:20:43;10.60;;;3.33;;
31760;SDS011;18335;51.486;7.562;2023-03-23T10:23:24;8.77;;;2.05;;
31760;SDS011;18335;51.486;7.562;2023-03-23T10:26:08;6.07;;;2.15;;
31760;SDS011;18335;51.486;7.562;2023-03-23T10:28:42;7.28;;;2.13;;
31760;SDS011;18335;51.486;7.562;2023-03-23T10:31:10;6.10;;;1.77;;
31760;SDS011;18335;51.486;7.562;2023-03-23T10:33:40;8.95;;;2.08;;
31760;SDS011;18335;51.486;7.562;2023-03-23T10:36:10;10.30;;;2.83;;
31760;SDS011;18335;51.486;7.562;2023-03-23T10:38:43;9.50;;;2.30;;
31760;SDS011;18335;51.486;7.562;2023-03-23T10:41:13;9.85;;;2.03;;
31760;SDS011;18335;51.486;7.562;2023-03-23T10:43:43;8.90;;;1.90;;
31760;SDS011;18335;51.486;7.562;2023-03-23T10:46:26;7.88;;;1.92;;
31760;SDS011;18335;51.486;7.562;2023-03-23T10:48:57;11.35;;;2.55;;
31760;SDS011;18335;51.486;7.562;2023-03-23T10:51:29;4.03;;;1.35;;
31760;SDS011;18335;51.486;7.562;2023-03-23T10:54:00;5.45;;;1.45;;
31760;SDS011;18335;51.486;7.562;2023-03-23T10:56:29;5.88;;;2.05;;
31760;SDS011;18335;51.486;7.562;2023-03-23T10:59:12;5.32;;;1.35;;
31760;SDS011;18335;51.486;7.562;2023-03-23T11:01:42;5.53;;;1.30;;
31760;SDS011;18335;51.486;7.562;2023-03-23T11:04:11;5.45;;;1.35;;
31760;SDS011;18335;51.486;7.562;2023-03-23T11:06:42;4.63;;;1.33;;
31760;SDS011;18335;51.486;7.562;2023-03-23T11:09:12;5.05;;;1.70;;
31760;SDS011;18335;51.486;7.562;2023-03-23T11:11:41;4.32;;;1.77;;
31760;SDS011;18335;51.486;7.562;2023-03-23T11:14:14;3.90;;;0.90;;
31760;SDS011;18335;51.486;7.562;2023-03-23T11:16:43;6.32;;;1.10;;
31760;SDS011;18335;51.486;7.562;2023-03-23T11:19:20;3.95;;;0.93;;
31760;SDS011;18335;51.486;7.562;2023-03-23T11:21:50;3.97;;;1.35;;
31760;SDS011;18335;51.486;7.562;2023-03-23T11:24:21;4.95;;;1.05;;
31760;SDS011;18335;51.486;7.562;2023-03-23T11:26:48;5.60;;;0.93;;
31760;SDS011;18335;51.486;7.562;2023-03-23T11:29:19;3.85;;;1.13;;
31760;SDS011;18335;51.486;7.562;2023-03-23T11:31:49;3.92;;;1.25;;
31760;SDS011;18335;51.486;7.562;2023-03-23T11:34:19;6.25;;;1.88;;
31760;SDS011;18335;51.486;7.562;2023-03-23T11:36:49;7.00;;;1.70;;
31760;SDS011;18335;51.486;7.562;2023-03-23T11:39:22;5.40;;;1.80;;
31760;SDS011;18335;51.486;7.562;2023-03-23T11:41:51;7.10;;;2.38;;
31760;SDS011;18335;51.486;7.562;2023-03-23T11:44:20;7.15;;;2.92;;
31760;SDS011;18335;51.486;7.562;2023-03-23T11:46:50;7.18;;;3.10;;
31760;SDS011;18335;51.486;7.562;2023-03-23T11:49:29;8.82;;;3.58;;
31760;SDS011;18335;51.486;7.562;2023-03-23T11:52:07;6.68;;;3.70;;
31760;SDS011;18335;51.486;7.562;2023-03-23T11:54:41;9.48;;;3.67;;
31760;SDS011;18335;51.486;7.562;2023-03-23T11:57:13;6.47;;;3.95;;
31760;SDS011;18335;51.486;7.562;2023-03-23T11:59:42;11.85;;;4.88;;
31760;SDS011;18335;51.486;7.562;2023-03-23T12:05:11;10.85;;;5.63;;
31760;SDS011;18335;51.486;7.562;2023-03-23T12:07:54;8.90;;;4.93;;
31760;SDS011;18335;51.486;7.562;2023-03-23T12:10:33;8.30;;;4.70;;
31760;SDS011;18335;51.486;7.562;2023-03-23T12:16:00;8.85;;;5.05;;
31760;SDS011;18335;51.486;7.562;2023-03-23T12:18:38;8.93;;;4.85;;
31760;SDS011;18335;51.486;7.562;2023-03-23T12:21:15;9.20;;;4.97;;
31760;SDS011;18335;51.486;7.562;2023-03-23T12:23:49;7.82;;;4.93;;
31760;SDS011;18335;51.486;7.562;2023-03-23T12:26:23;7.47;;;4.90;;
31760;SDS011;18335;51.486;7.562;2023-03-23T12:34:58;9.40;;;5.00;;
31760;SDS011;18335;51.486;7.562;2023-03-23T12:37:40;9.55;;;4.45;;
31760;SDS011;18335;51.486;7.562;2023-03-23T12:40:19;4.00;;;2.50;;
31760;SDS011;18335;51.486;7.562;2023-03-23T12:42:55;5.47;;;3.13;;
31760;SDS011;18335;51.486;7.562;2023-03-23T12:45:40;5.55;;;2.88;;
31760;SDS011;18335;51.486;7.562;2023-03-23T12:48:17;5.35;;;2.95;;
31760;SDS011;18335;51.486;7.562;2023-03-23T12:51:00;3.72;;;2.13;;
31760;SDS011;18335;51.486;7.562;2023-03-23T12:53:36;3.63;;;1.80;;
31760;SDS011;18335;51.486;7.562;2023-03-23T12:56:11;6.60;;;2.13;;
31760;SDS011;18335;51.486;7.562;2023-03-23T12:58:42;2.97;;;1.75;;
31760;SDS011;18335;51.486;7.562;2023-03-23T13:01:12;4.95;;;1.67;;
31760;SDS011;18335;51.486;7.562;2023-03-23T13:03:48;3.83;;;2.08;;
31760;SDS011;18335;51.486;7.562;2023-03-23T13:06:25;2.60;;;1.60;;
31760;SDS011;18335;51.486;7.562;2023-03-23T13:08:58;5.95;;;1.90;;
31760;SDS011;18335;51.486;7.562;2023-03-23T13:11:32;6.43;;;1.80;;
31760;SDS011;18335;51.486;7.562;2023-03-23T13:14:02;6.90;;;2.13;;
31760;SDS011;18335;51.486;7.562;2023-03-23T13:16:38;5.82;;;1.83;;
31760;SDS011;18335;51.486;7.562;2023-03-23T13:19:11;5.22;;;2.13;;
31760;SDS011;18335;51.486;7.562;2023-03-23T13:21:45;4.43;;;1.73;;
31760;SDS011;18335;51.486;7.562;2023-03-23T13:24:18;4.22;;;1.83;;
31760;SDS011;18335;51.486;7.562;2023-03-23T13:26:49;5.03;;;2.10;;
31760;SDS011;18335;51.486;7.562;2023-03-23T13:29:17;6.85;;;1.98;;
31760;SDS011;18335;51.486;7.562;2023-03-23T13:31:45;4.53;;;1.88;;
31760;SDS011;18335;51.486;7.562;2023-03-23T13:34:16;4.70;;;1.83;;
31760;SDS011;18335;51.486;7.562;2023-03-23T13:36:53;3.85;;;1.80;;
31760;SDS011;18335;51.486;7.562;2023-03-23T13:39:22;5.72;;;1.90;;
31760;SDS011;18335;51.486;7.562;2023-03-23T13:42:02;5.30;;;1.73;;
31760;SDS011;18335;51.486;7.562;2023-03-23T13:44:42;4.60;;;1.40;;
31760;SDS011;18335;51.486;7.562;2023-03-23T13:47:20;4.90;;;1.38;;
31760;SDS011;18335;51.486;7.562;2023-03-23T13:49:52;2.58;;;0.98;;
31760;SDS011;18335;51.486;7.562;2023-03-23T13:52:24;5.32;;;1.30;;
31760;SDS011;18335;51.486;7.562;2023-03-23T13:55:19;3.63;;;1.10;;
31760;SDS011;18335;51.486;7.562;2023-03-23T13:57:49;4.78;;;1.23;;
31760;SDS011;18335;51.486;7.562;2023-03-23T14:03:14;3.47;;;1.02;;
31760;SDS011;18335;51.486;7.562;2023-03-23T14:05:44;3.95;;;1.42;;
31760;SDS011;18335;51.486;7.562;2023-03-23T14:08:22;4.90;;;1.20;;
31760;SDS011;18335;51.486;7.562;2023-03-23T14:10:51;2.72;;;1.40;;
31760;SDS011;18335;51.486;7.562;2023-03-23T14:13:24;6.45;;;1.67;;
31760;SDS011;18335;51.486;7.562;2023-03-23T14:15:59;4.53;;;1.55;;
31760;SDS011;18335;51.486;7.562;2023-03-23T14:18:32;4.38;;;1.75;;
31760;SDS011;18335;51.486;7.562;2023-03-23T14:21:02;5.30;;;2.00;;
31760;SDS011;18335;51.486;7.562;2023-03-23T14:23:32;5.40;;;2.50;;
31760;SDS011;18335;51.486;7.562;2023-03-23T14:26:00;8.73;;;3.08;;
31760;SDS011;18335;51.486;7.562;2023-03-23T14:28:35;7.75;;;3.17;;
31760;SDS011;18335;51.486;7.562;2023-03-23T14:31:04;9.73;;;3.90;;
31760;SDS011;18335;51.486;7.562;2023-03-23T14:33:31;8.10;;;4.13;;
31760;SDS011;18335;51.486;7.562;2023-03-23T14:35:58;13.77;;;6.03;;
31760;SDS011;18335;51.486;7.562;2023-03-23T14:38:26;9.63;;;5.30;;
31760;SDS011;18335;51.486;7.562;2023-03-23T14:41:03;11.65;;;6.40;;
31760;SDS011;18335;51.486;7.562;2023-03-23T14:43:32;11.48;;;6.57;;
31760;SDS011;18335;51.486;7.562;2023-03-23T14:46:02;11.25;;;6.22;;
31760;SDS011;18335;51.486;7.562;2023-03-23T14:48:33;11.48;;;6.70;;
31760;SDS011;18335;51.486;7.562;2023-03-23T14:51:02;16.42;;;9.23;;
31760;SDS011;18335;51.486;7.562;2023-03-23T14:53:33;13.40;;;6.57;;
31760;SDS011;18335;51.486;7.562;2023-03-23T14:56:06;11.90;;;7.38;;
31760;SDS011;18335;51.486;7.562;2023-03-23T14:58:38;12.77;;;7.22;;
31760;SDS011;18335;51.486;7.562;2023-03-23T15:01:09;12.65;;;6.70;;
31760;SDS011;18335;51.486;7.562;2023-03-23T15:03:39;11.40;;;7.78;;
31760;SDS011;18335;51.486;7.562;2023-03-23T15:06:11;11.70;;;5.88;;
31760;SDS011;18335;51.486;7.562;2023-03-23T15:08:41;11.48;;;6.25;;
31760;SDS011;18335;51.486;7.562;2023-03-23T15:11:11;11.57;;;6.57;;
31760;SDS011;18335;51.486;7.562;2023-03-23T15:13:50;10.77;;;5.80;;
31760;SDS011;18335;51.486;7.562;2023-03-23T15:16:20;10.20;;;4.90;;
31760;SDS011;18335;51.486;7.562;2023-03-23T15:18:49;10.52;;;4.75;;
31760;SDS011;18335;51.486;7.562;2023-03-23T15:21:22;11.13;;;5.25;;
31760;SDS011;18335;51.486;7.562;2023-03-23T15:23:51;12.20;;;5.05;;
31760;SDS011;18335;51.486;7.562;2023-03-23T15:26:25;11.35;;;3.88;;
31760;SDS011;18335;51.486;7.562;2023-03-23T15:29:01;10.38;;;4.20;;
31760;SDS011;18335;51.486;7.562;2023-03-23T15:31:38;8.18;;;3.70;;
31760;SDS011;18335;51.486;7.562;2023-03-23T15:34:10;7.03;;;3.10;;
31760;SDS011;18335;51.486;7.562;2023-03-23T15:36:42;8.68;;;2.78;;
31760;SDS011;18335;51.486;7.562;2023-03-23T15:39:10;6.93;;;2.53;;
31760;SDS011;18335;51.486;7.562;2023-03-23T15:41:46;8.70;;;2.45;;
31760;SDS011;18335;51.486;7.562;2023-03-23T15:44:25;13.18;;;2.58;;
31760;SDS011;18335;51.486;7.562;2023-03-23T15:47:03;8.73;;;3.03;;